sensor_id;sensor_type;location;lat;lon;timestamp;P1;durP1;ratioP1;P2;durP2;ratioP2
21480;SDS011;10902;48.158;8.634;2023-04-27T00:01:48;9.00;;;5.47;;
21480;SDS011;10902;48.158;8.634;2023-04-27T00:04:14;10.98;;;6.38;;
21480;SDS011;10902;48.158;8.634;2023-04-27T00:06:40;11.35;;;6.10;;
21480;SDS011;10902;48.158;8.634;2023-04-27T00:09:06;10.00;;;5.20;;
21480;SDS011;10902;48.158;8.634;2023-04-27T00:11:32;9.88;;;5.28;;
21480;SDS011;10902;48.158;8.634;2023-04-27T00:13:58;9.52;;;5.97;;
21480;SDS011;10902;48.158;8.634;2023-04-27T00:16:24;8.93;;;5.32;;
21480;SDS011;10902;48.158;8.634;2023-04-27T00:18:50;7.90;;;5.32;;
21480;SDS011;10902;48.158;8.634;2023-04-27T00:21:16;10.52;;;5.53;;
21480;SDS011;10902;48.158;8.634;2023-04-27T00:23:42;9.57;;;6.15;;
21480;SDS011;10902;48.158;8.634;2023-04-27T00:26:07;9.27;;;5.72;;
21480;SDS011;10902;48.158;8.634;2023-04-27T00:28:33;8.73;;;5.57;;
21480;SDS011;10902;48.158;8.634;2023-04-27T00:30:58;9.80;;;6.03;;
21480;SDS011;10902;48.158;8.634;2023-04-27T00:33:27;10.20;;;5.68;;
21480;SDS011;10902;48.158;8.634;2023-04-27T00:35:53;10.95;;;6.47;;
21480;SDS011;10902;48.158;8.634;2023-04-27T00:38:18;11.77;;;5.90;;
21480;SDS011;10902;48.158;8.634;2023-04-27T00:40:44;9.43;;;5.28;;
21480;SDS011;10902;48.158;8.634;2023-04-27T00:43:10;8.48;;;5.28;;
21480;SDS011;10902;48.158;8.634;2023-04-27T00:45:40;9.68;;;5.90;;
21480;SDS011;10902;48.158;8.634;2023-04-27T00:48:07;8.88;;;5.53;;
21480;SDS011;10902;48.158;8.634;2023-04-27T00:50:35;8.05;;;5.25;;
21480;SDS011;10902;48.158;8.634;2023-04-27T00:53:02;10.85;;;5.75;;
21480;SDS011;10902;48.158;8.634;2023-04-27T00:55:29;10.13;;;5.38;;
21480;SDS011;10902;48.158;8.634;2023-04-27T00:57:55;10.15;;;6.05;;
21480;SDS011;10902;48.158;8.634;2023-04-27T01:00:20;9.93;;;5.25;;
21480;SDS011;10902;48.158;8.634;2023-04-27T01:02:46;9.23;;;5.75;;
21480;SDS011;10902;48.158;8.634;2023-04-27T01:05:13;9.40;;;5.30;;
21480;SDS011;10902;48.158;8.634;2023-04-27T01:07:39;8.63;;;5.00;;
21480;SDS011;10902;48.158;8.634;2023-04-27T01:10:05;9.10;;;5.53;;
21480;SDS011;10902;48.158;8.634;2023-04-27T01:12:31;10.80;;;5.72;;
21480;SDS011;10902;48.158;8.634;2023-04-27T01:14:57;8.65;;;5.45;;
21480;SDS011;10902;48.158;8.634;2023-04-27T01:17:23;10.60;;;5.80;;
21480;SDS011;10902;48.158;8.634;2023-04-27T01:19:49;9.07;;;5.57;;
21480;SDS011;10902;48.158;8.634;2023-04-27T01:22:15;9.57;;;6.10;;
21480;SDS011;10902;48.158;8.634;2023-04-27T01:24:41;9.98;;;5.40;;
21480;SDS011;10902;48.158;8.634;2023-04-27T01:27:07;8.75;;;6.13;;
21480;SDS011;10902;48.158;8.634;2023-04-27T01:29:32;9.65;;;6.57;;
21480;SDS011;10902;48.158;8.634;2023-04-27T01:31:58;10.85;;;6.82;;
21480;SDS011;10902;48.158;8.634;2023-04-27T01:34:23;10.27;;;6.38;;
21480;SDS011;10902;48.158;8.634;2023-04-27T01:36:49;10.60;;;6.70;;
21480;SDS011;10902;48.158;8.634;2023-04-27T01:39:15;11.88;;;7.10;;
21480;SDS011;10902;48.158;8.634;2023-04-27T01:41:40;9.48;;;6.30;;
21480;SDS011;10902;48.158;8.634;2023-04-27T01:44:06;9.77;;;6.15;;
21480;SDS011;10902;48.158;8.634;2023-04-27T01:46:31;10.73;;;6.38;;
21480;SDS011;10902;48.158;8.634;2023-04-27T01:48:57;8.45;;;6.22;;
21480;SDS011;10902;48.158;8.634;2023-04-27T01:51:23;10.90;;;6.43;;
21480;SDS011;10902;48.158;8.634;2023-04-27T01:53:48;10.45;;;6.90;;
21480;SDS011;10902;48.158;8.634;2023-04-27T01:56:14;11.30;;;7.15;;
21480;SDS011;10902;48.158;8.634;2023-04-27T01:58:39;10.00;;;6.63;;
21480;SDS011;10902;48.158;8.634;2023-04-27T02:01:05;10.73;;;6.72;;
21480;SDS011;10902;48.158;8.634;2023-04-27T02:03:30;9.40;;;6.18;;
21480;SDS011;10902;48.158;8.634;2023-04-27T02:05:56;11.43;;;6.50;;
21480;SDS011;10902;48.158;8.634;2023-04-27T02:08:22;10.38;;;6.50;;
21480;SDS011;10902;48.158;8.634;2023-04-27T02:10:47;10.15;;;7.25;;
21480;SDS011;10902;48.158;8.634;2023-04-27T02:13:13;11.55;;;6.90;;
21480;SDS011;10902;48.158;8.634;2023-04-27T02:15:38;11.32;;;7.10;;
21480;SDS011;10902;48.158;8.634;2023-04-27T02:18:04;11.77;;;6.72;;
21480;SDS011;10902;48.158;8.634;2023-04-27T02:20:30;10.20;;;6.00;;
21480;SDS011;10902;48.158;8.634;2023-04-27T02:22:56;10.10;;;6.75;;
21480;SDS011;10902;48.158;8.634;2023-04-27T02:25:22;12.00;;;6.43;;
21480;SDS011;10902;48.158;8.634;2023-04-27T02:27:47;9.52;;;5.93;;
21480;SDS011;10902;48.158;8.634;2023-04-27T02:30:13;8.00;;;5.43;;
21480;SDS011;10902;48.158;8.634;2023-04-27T02:32:39;9.00;;;5.78;;
21480;SDS011;10902;48.158;8.634;2023-04-27T02:35:05;9.60;;;5.70;;
21480;SDS011;10902;48.158;8.634;2023-04-27T02:37:32;10.35;;;6.40;;
21480;SDS011;10902;48.158;8.634;2023-04-27T02:39:58;15.48;;;7.25;;
21480;SDS011;10902;48.158;8.634;2023-04-27T02:42:23;11.38;;;6.55;;
21480;SDS011;10902;48.158;8.634;2023-04-27T02:44:49;9.63;;;6.28;;
21480;SDS011;10902;48.158;8.634;2023-04-27T02:47:15;12.57;;;6.28;;
21480;SDS011;10902;48.158;8.634;2023-04-27T02:49:40;10.75;;;6.47;;
21480;SDS011;10902;48.158;8.634;2023-04-27T02:52:06;11.48;;;6.32;;
21480;SDS011;10902;48.158;8.634;2023-04-27T02:54:32;9.85;;;6.95;;
21480;SDS011;10902;48.158;8.634;2023-04-27T02:56:58;9.88;;;6.22;;
21480;SDS011;10902;48.158;8.634;2023-04-27T02:59:24;9.52;;;6.43;;
21480;SDS011;10902;48.158;8.634;2023-04-27T03:01:49;9.80;;;7.00;;
21480;SDS011;10902;48.158;8.634;2023-04-27T03:04:15;11.10;;;7.20;;
21480;SDS011;10902;48.158;8.634;2023-04-27T03:06:42;11.30;;;7.75;;
21480;SDS011;10902;48.158;8.634;2023-04-27T03:09:08;12.43;;;7.03;;
21480;SDS011;10902;48.158;8.634;2023-04-27T03:11:37;11.10;;;7.25;;
21480;SDS011;10902;48.158;8.634;2023-04-27T03:14:03;12.20;;;6.80;;
21480;SDS011;10902;48.158;8.634;2023-04-27T03:16:32;11.20;;;6.65;;
21480;SDS011;10902;48.158;8.634;2023-04-27T03:18:58;10.18;;;6.45;;
21480;SDS011;10902;48.158;8.634;2023-04-27T03:21:24;9.35;;;6.07;;
21480;SDS011;10902;48.158;8.634;2023-04-27T03:23:53;11.73;;;6.65;;
21480;SDS011;10902;48.158;8.634;2023-04-27T03:26:19;10.45;;;7.10;;
21480;SDS011;10902;48.158;8.634;2023-04-27T03:28:44;10.35;;;6.82;;
21480;SDS011;10902;48.158;8.634;2023-04-27T03:31:11;10.60;;;6.88;;
21480;SDS011;10902;48.158;8.634;2023-04-27T03:33:38;12.95;;;7.18;;
21480;SDS011;10902;48.158;8.634;2023-04-27T03:36:04;10.15;;;6.30;;
21480;SDS011;10902;48.158;8.634;2023-04-27T03:38:31;12.65;;;7.13;;
21480;SDS011;10902;48.158;8.634;2023-04-27T03:40:57;11.88;;;7.32;;
21480;SDS011;10902;48.158;8.634;2023-04-27T03:43:23;11.25;;;7.00;;
21480;SDS011;10902;48.158;8.634;2023-04-27T03:45:49;11.48;;;6.78;;
21480;SDS011;10902;48.158;8.634;2023-04-27T03:48:16;11.73;;;7.45;;
21480;SDS011;10902;48.158;8.634;2023-04-27T03:50:42;12.05;;;6.43;;
21480;SDS011;10902;48.158;8.634;2023-04-27T03:53:08;19.30;;;7.35;;
21480;SDS011;10902;48.158;8.634;2023-04-27T03:55:38;11.82;;;6.47;;
21480;SDS011;10902;48.158;8.634;2023-04-27T03:58:07;11.00;;;6.18;;
21480;SDS011;10902;48.158;8.634;2023-04-27T04:00:34;9.77;;;6.18;;
21480;SDS011;10902;48.158;8.634;2023-04-27T04:03:01;8.98;;;6.03;;
21480;SDS011;10902;48.158;8.634;2023-04-27T04:05:27;10.88;;;6.72;;
21480;SDS011;10902;48.158;8.634;2023-04-27T04:07:54;13.30;;;6.93;;
21480;SDS011;10902;48.158;8.634;2023-04-27T04:10:20;11.40;;;6.50;;
21480;SDS011;10902;48.158;8.634;2023-04-27T04:12:46;10.35;;;6.40;;
21480;SDS011;10902;48.158;8.634;2023-04-27T04:15:12;8.60;;;5.82;;
21480;SDS011;10902;48.158;8.634;2023-04-27T04:17:37;12.23;;;6.57;;
21480;SDS011;10902;48.158;8.634;2023-04-27T04:20:03;9.93;;;6.80;;
21480;SDS011;10902;48.158;8.634;2023-04-27T04:22:35;11.25;;;6.55;;
21480;SDS011;10902;48.158;8.634;2023-04-27T04:25:01;10.90;;;6.65;;
21480;SDS011;10902;48.158;8.634;2023-04-27T04:27:28;9.90;;;6.93;;
21480;SDS011;10902;48.158;8.634;2023-04-27T04:29:53;11.90;;;6.85;;
21480;SDS011;10902;48.158;8.634;2023-04-27T04:32:19;11.65;;;6.38;;
21480;SDS011;10902;48.158;8.634;2023-04-27T04:34:49;11.30;;;7.03;;
21480;SDS011;10902;48.158;8.634;2023-04-27T04:37:15;11.05;;;6.80;;
21480;SDS011;10902;48.158;8.634;2023-04-27T04:39:42;9.63;;;6.70;;
21480;SDS011;10902;48.158;8.634;2023-04-27T04:42:08;10.20;;;7.05;;
21480;SDS011;10902;48.158;8.634;2023-04-27T04:44:34;13.55;;;6.43;;
21480;SDS011;10902;48.158;8.634;2023-04-27T04:46:59;9.00;;;5.88;;
21480;SDS011;10902;48.158;8.634;2023-04-27T04:49:25;10.75;;;5.88;;
21480;SDS011;10902;48.158;8.634;2023-04-27T04:51:51;10.13;;;6.07;;
21480;SDS011;10902;48.158;8.634;2023-04-27T04:54:16;10.52;;;6.05;;
21480;SDS011;10902;48.158;8.634;2023-04-27T04:56:42;9.45;;;6.47;;
21480;SDS011;10902;48.158;8.634;2023-04-27T04:59:07;10.88;;;6.47;;
21480;SDS011;10902;48.158;8.634;2023-04-27T05:01:33;16.27;;;5.82;;
21480;SDS011;10902;48.158;8.634;2023-04-27T05:03:58;12.85;;;6.90;;
21480;SDS011;10902;48.158;8.634;2023-04-27T05:06:24;11.35;;;6.85;;
21480;SDS011;10902;48.158;8.634;2023-04-27T05:08:50;10.00;;;6.80;;
21480;SDS011;10902;48.158;8.634;2023-04-27T05:11:16;9.27;;;6.30;;
21480;SDS011;10902;48.158;8.634;2023-04-27T05:13:41;9.18;;;6.72;;
21480;SDS011;10902;48.158;8.634;2023-04-27T05:16:07;11.77;;;7.00;;
21480;SDS011;10902;48.158;8.634;2023-04-27T05:18:33;11.88;;;7.40;;
21480;SDS011;10902;48.158;8.634;2023-04-27T05:20:59;10.57;;;6.97;;
21480;SDS011;10902;48.158;8.634;2023-04-27T05:23:25;11.30;;;6.63;;
21480;SDS011;10902;48.158;8.634;2023-04-27T05:25:51;10.35;;;6.97;;
21480;SDS011;10902;48.158;8.634;2023-04-27T05:28:17;12.10;;;7.20;;
21480;SDS011;10902;48.158;8.634;2023-04-27T05:30:43;13.05;;;6.70;;
21480;SDS011;10902;48.158;8.634;2023-04-27T05:33:08;10.95;;;6.95;;
21480;SDS011;10902;48.158;8.634;2023-04-27T05:35:34;10.60;;;6.82;;
21480;SDS011;10902;48.158;8.634;2023-04-27T05:38:00;11.57;;;7.55;;
21480;SDS011;10902;48.158;8.634;2023-04-27T05:40:25;10.73;;;6.60;;
21480;SDS011;10902;48.158;8.634;2023-04-27T05:42:51;9.18;;;6.00;;
21480;SDS011;10902;48.158;8.634;2023-04-27T05:45:17;12.85;;;6.80;;
21480;SDS011;10902;48.158;8.634;2023-04-27T05:47:43;10.90;;;6.15;;
21480;SDS011;10902;48.158;8.634;2023-04-27T05:50:09;9.55;;;6.47;;
21480;SDS011;10902;48.158;8.634;2023-04-27T05:52:35;12.30;;;6.32;;
21480;SDS011;10902;48.158;8.634;2023-04-27T05:55:01;9.90;;;5.75;;
21480;SDS011;10902;48.158;8.634;2023-04-27T05:57:26;9.38;;;5.68;;
21480;SDS011;10902;48.158;8.634;2023-04-27T05:59:52;11.00;;;6.13;;
21480;SDS011;10902;48.158;8.634;2023-04-27T06:02:18;10.30;;;6.47;;
21480;SDS011;10902;48.158;8.634;2023-04-27T06:04:44;8.68;;;5.68;;
21480;SDS011;10902;48.158;8.634;2023-04-27T06:07:11;8.50;;;6.20;;
21480;SDS011;10902;48.158;8.634;2023-04-27T06:09:38;9.38;;;5.70;;
21480;SDS011;10902;48.158;8.634;2023-04-27T06:12:04;10.75;;;5.72;;
21480;SDS011;10902;48.158;8.634;2023-04-27T06:14:31;8.43;;;5.63;;
21480;SDS011;10902;48.158;8.634;2023-04-27T06:16:58;9.00;;;5.18;;
21480;SDS011;10902;48.158;8.634;2023-04-27T06:19:23;9.20;;;5.32;;
21480;SDS011;10902;48.158;8.634;2023-04-27T06:21:50;8.82;;;5.18;;
21480;SDS011;10902;48.158;8.634;2023-04-27T06:24:17;9.13;;;4.93;;
21480;SDS011;10902;48.158;8.634;2023-04-27T06:26:43;7.82;;;4.93;;
21480;SDS011;10902;48.158;8.634;2023-04-27T06:29:08;7.57;;;5.03;;
21480;SDS011;10902;48.158;8.634;2023-04-27T06:31:34;10.30;;;5.30;;
21480;SDS011;10902;48.158;8.634;2023-04-27T06:34:00;9.82;;;5.50;;
21480;SDS011;10902;48.158;8.634;2023-04-27T06:36:25;8.80;;;5.40;;
21480;SDS011;10902;48.158;8.634;2023-04-27T06:38:52;7.35;;;5.25;;
21480;SDS011;10902;48.158;8.634;2023-04-27T06:41:21;9.00;;;5.15;;
21480;SDS011;10902;48.158;8.634;2023-04-27T06:43:47;9.00;;;5.55;;
21480;SDS011;10902;48.158;8.634;2023-04-27T06:46:12;10.02;;;5.38;;
21480;SDS011;10902;48.158;8.634;2023-04-27T06:48:38;10.38;;;5.50;;
21480;SDS011;10902;48.158;8.634;2023-04-27T06:51:05;7.20;;;4.70;;
21480;SDS011;10902;48.158;8.634;2023-04-27T06:53:31;11.10;;;5.65;;
21480;SDS011;10902;48.158;8.634;2023-04-27T06:55:56;8.18;;;5.10;;
21480;SDS011;10902;48.158;8.634;2023-04-27T06:58:22;7.00;;;4.13;;
21480;SDS011;10902;48.158;8.634;2023-04-27T07:00:48;10.05;;;4.78;;
21480;SDS011;10902;48.158;8.634;2023-04-27T07:03:13;6.75;;;4.20;;
21480;SDS011;10902;48.158;8.634;2023-04-27T07:05:39;8.27;;;5.18;;
21480;SDS011;10902;48.158;8.634;2023-04-27T07:08:05;6.97;;;4.88;;
21480;SDS011;10902;48.158;8.634;2023-04-27T07:10:31;10.35;;;4.78;;
21480;SDS011;10902;48.158;8.634;2023-04-27T07:12:57;12.57;;;5.10;;
21480;SDS011;10902;48.158;8.634;2023-04-27T07:15:22;8.85;;;5.07;;
21480;SDS011;10902;48.158;8.634;2023-04-27T07:17:49;11.68;;;5.10;;
21480;SDS011;10902;48.158;8.634;2023-04-27T07:20:17;9.65;;;4.90;;
21480;SDS011;10902;48.158;8.634;2023-04-27T07:22:43;8.27;;;4.65;;
21480;SDS011;10902;48.158;8.634;2023-04-27T07:25:09;10.45;;;5.00;;
21480;SDS011;10902;48.158;8.634;2023-04-27T07:27:35;9.05;;;4.93;;
21480;SDS011;10902;48.158;8.634;2023-04-27T07:30:01;9.73;;;4.95;;
21480;SDS011;10902;48.158;8.634;2023-04-27T07:32:26;7.80;;;4.25;;
21480;SDS011;10902;48.158;8.634;2023-04-27T07:34:54;9.35;;;4.90;;
21480;SDS011;10902;48.158;8.634;2023-04-27T07:37:20;8.07;;;4.45;;
21480;SDS011;10902;48.158;8.634;2023-04-27T07:39:47;7.60;;;4.57;;
21480;SDS011;10902;48.158;8.634;2023-04-27T07:42:14;6.68;;;4.15;;
21480;SDS011;10902;48.158;8.634;2023-04-27T07:44:40;7.53;;;4.25;;
21480;SDS011;10902;48.158;8.634;2023-04-27T07:47:06;7.45;;;4.40;;
21480;SDS011;10902;48.158;8.634;2023-04-27T07:49:32;8.98;;;3.97;;
21480;SDS011;10902;48.158;8.634;2023-04-27T07:51:59;8.32;;;4.15;;
21480;SDS011;10902;48.158;8.634;2023-04-27T07:54:25;7.05;;;3.70;;
21480;SDS011;10902;48.158;8.634;2023-04-27T07:56:51;7.20;;;4.32;;
21480;SDS011;10902;48.158;8.634;2023-04-27T07:59:17;7.22;;;4.10;;
21480;SDS011;10902;48.158;8.634;2023-04-27T08:01:43;9.23;;;4.10;;
21480;SDS011;10902;48.158;8.634;2023-04-27T08:04:08;6.03;;;3.35;;
21480;SDS011;10902;48.158;8.634;2023-04-27T08:06:36;6.20;;;3.70;;
21480;SDS011;10902;48.158;8.634;2023-04-27T08:09:01;6.15;;;3.00;;
21480;SDS011;10902;48.158;8.634;2023-04-27T08:11:28;7.55;;;3.25;;
21480;SDS011;10902;48.158;8.634;2023-04-27T08:13:54;6.80;;;2.88;;
21480;SDS011;10902;48.158;8.634;2023-04-27T08:16:19;5.40;;;2.78;;
21480;SDS011;10902;48.158;8.634;2023-04-27T08:18:45;6.65;;;3.58;;
21480;SDS011;10902;48.158;8.634;2023-04-27T08:21:11;6.35;;;3.38;;
21480;SDS011;10902;48.158;8.634;2023-04-27T08:23:36;5.70;;;3.33;;
21480;SDS011;10902;48.158;8.634;2023-04-27T08:26:02;6.63;;;3.17;;
21480;SDS011;10902;48.158;8.634;2023-04-27T08:28:28;6.82;;;3.50;;
21480;SDS011;10902;48.158;8.634;2023-04-27T08:30:54;7.03;;;2.88;;
21480;SDS011;10902;48.158;8.634;2023-04-27T08:33:19;7.50;;;2.88;;
21480;SDS011;10902;48.158;8.634;2023-04-27T08:35:45;5.72;;;2.88;;
21480;SDS011;10902;48.158;8.634;2023-04-27T08:38:11;5.70;;;3.00;;
21480;SDS011;10902;48.158;8.634;2023-04-27T08:40:43;6.57;;;2.90;;
21480;SDS011;10902;48.158;8.634;2023-04-27T08:43:09;6.63;;;2.97;;
21480;SDS011;10902;48.158;8.634;2023-04-27T08:45:34;7.30;;;3.72;;
21480;SDS011;10902;48.158;8.634;2023-04-27T08:48:00;7.70;;;3.35;;
21480;SDS011;10902;48.158;8.634;2023-04-27T08:50:26;7.65;;;3.67;;
21480;SDS011;10902;48.158;8.634;2023-04-27T08:52:52;7.13;;;3.25;;
21480;SDS011;10902;48.158;8.634;2023-04-27T08:55:18;8.77;;;3.10;;
21480;SDS011;10902;48.158;8.634;2023-04-27T08:57:53;7.32;;;3.25;;
21480;SDS011;10902;48.158;8.634;2023-04-27T09:00:20;6.05;;;3.35;;
21480;SDS011;10902;48.158;8.634;2023-04-27T09:02:46;7.25;;;3.08;;
21480;SDS011;10902;48.158;8.634;2023-04-27T09:05:16;8.32;;;3.58;;
21480;SDS011;10902;48.158;8.634;2023-04-27T09:07:59;7.63;;;3.20;;
21480;SDS011;10902;48.158;8.634;2023-04-27T09:10:47;4.88;;;1.90;;
21480;SDS011;10902;48.158;8.634;2023-04-27T09:13:14;4.78;;;2.22;;
21480;SDS011;10902;48.158;8.634;2023-04-27T09:15:40;8.57;;;2.38;;
21480;SDS011;10902;48.158;8.634;2023-04-27T09:18:14;5.90;;;2.40;;
21480;SDS011;10902;48.158;8.634;2023-04-27T09:20:44;5.55;;;2.20;;
21480;SDS011;10902;48.158;8.634;2023-04-27T09:23:23;5.88;;;2.70;;
21480;SDS011;10902;48.158;8.634;2023-04-27T09:25:53;5.10;;;2.30;;
21480;SDS011;10902;48.158;8.634;2023-04-27T09:28:26;6.53;;;2.40;;
21480;SDS011;10902;48.158;8.634;2023-04-27T09:30:56;5.25;;;2.72;;
21480;SDS011;10902;48.158;8.634;2023-04-27T09:33:27;6.43;;;2.78;;
21480;SDS011;10902;48.158;8.634;2023-04-27T09:35:54;4.53;;;2.40;;
21480;SDS011;10902;48.158;8.634;2023-04-27T09:38:21;5.70;;;2.42;;
21480;SDS011;10902;48.158;8.634;2023-04-27T09:40:48;4.97;;;2.10;;
21480;SDS011;10902;48.158;8.634;2023-04-27T09:43:15;4.80;;;2.05;;
21480;SDS011;10902;48.158;8.634;2023-04-27T09:45:41;4.15;;;2.15;;
21480;SDS011;10902;48.158;8.634;2023-04-27T09:48:08;6.80;;;2.50;;
21480;SDS011;10902;48.158;8.634;2023-04-27T09:50:34;4.78;;;2.45;;
21480;SDS011;10902;48.158;8.634;2023-04-27T09:53:04;6.07;;;2.30;;
21480;SDS011;10902;48.158;8.634;2023-04-27T09:55:57;5.40;;;2.45;;
21480;SDS011;10902;48.158;8.634;2023-04-27T10:07:07;7.35;;;2.70;;
21480;SDS011;10902;48.158;8.634;2023-04-27T10:09:39;6.72;;;2.67;;
21480;SDS011;10902;48.158;8.634;2023-04-27T10:12:39;5.57;;;2.50;;
21480;SDS011;10902;48.158;8.634;2023-04-27T10:15:12;5.90;;;2.50;;
21480;SDS011;10902;48.158;8.634;2023-04-27T10:17:46;4.88;;;2.20;;
21480;SDS011;10902;48.158;8.634;2023-04-27T10:20:13;4.13;;;2.15;;
21480;SDS011;10902;48.158;8.634;2023-04-27T10:22:43;4.43;;;2.03;;
21480;SDS011;10902;48.158;8.634;2023-04-27T10:27:51;5.50;;;2.63;;
21480;SDS011;10902;48.158;8.634;2023-04-27T10:30:19;5.32;;;2.75;;
21480;SDS011;10902;48.158;8.634;2023-04-27T10:32:50;5.55;;;2.30;;
21480;SDS011;10902;48.158;8.634;2023-04-27T10:35:20;4.93;;;2.28;;
21480;SDS011;10902;48.158;8.634;2023-04-27T10:38:06;6.45;;;2.30;;
21480;SDS011;10902;48.158;8.634;2023-04-27T10:40:39;7.13;;;2.22;;
21480;SDS011;10902;48.158;8.634;2023-04-27T10:43:15;5.55;;;2.17;;
21480;SDS011;10902;48.158;8.634;2023-04-27T10:45:42;5.75;;;2.35;;
21480;SDS011;10902;48.158;8.634;2023-04-27T10:48:09;6.63;;;2.03;;
21480;SDS011;10902;48.158;8.634;2023-04-27T10:50:37;4.43;;;2.20;;
21480;SDS011;10902;48.158;8.634;2023-04-27T10:53:04;5.90;;;1.73;;
21480;SDS011;10902;48.158;8.634;2023-04-27T10:55:31;3.92;;;1.85;;
21480;SDS011;10902;48.158;8.634;2023-04-27T10:57:57;5.18;;;2.35;;
21480;SDS011;10902;48.158;8.634;2023-04-27T11:00:24;5.22;;;2.33;;
21480;SDS011;10902;48.158;8.634;2023-04-27T11:02:51;4.35;;;2.00;;
21480;SDS011;10902;48.158;8.634;2023-04-27T11:05:26;5.85;;;1.88;;
21480;SDS011;10902;48.158;8.634;2023-04-27T11:08:05;4.75;;;2.33;;
21480;SDS011;10902;48.158;8.634;2023-04-27T11:10:31;4.28;;;1.95;;
21480;SDS011;10902;48.158;8.634;2023-04-27T11:13:04;5.45;;;2.40;;
21480;SDS011;10902;48.158;8.634;2023-04-27T11:15:43;5.18;;;1.98;;
21480;SDS011;10902;48.158;8.634;2023-04-27T11:18:13;4.07;;;1.80;;
21480;SDS011;10902;48.158;8.634;2023-04-27T11:20:42;4.72;;;1.90;;
21480;SDS011;10902;48.158;8.634;2023-04-27T11:23:09;4.60;;;1.85;;
21480;SDS011;10902;48.158;8.634;2023-04-27T11:25:35;4.40;;;2.03;;
21480;SDS011;10902;48.158;8.634;2023-04-27T11:28:04;5.60;;;2.22;;
21480;SDS011;10902;48.158;8.634;2023-04-27T11:30:41;4.82;;;2.13;;
21480;SDS011;10902;48.158;8.634;2023-04-27T11:33:07;5.68;;;1.90;;
21480;SDS011;10902;48.158;8.634;2023-04-27T11:35:33;5.40;;;2.10;;
21480;SDS011;10902;48.158;8.634;2023-04-27T11:37:59;4.43;;;1.83;;
21480;SDS011;10902;48.158;8.634;2023-04-27T11:40:25;5.07;;;1.88;;
21480;SDS011;10902;48.158;8.634;2023-04-27T11:42:56;3.90;;;1.88;;
21480;SDS011;10902;48.158;8.634;2023-04-27T11:45:23;4.15;;;1.67;;
21480;SDS011;10902;48.158;8.634;2023-04-27T11:47:51;4.60;;;2.08;;
21480;SDS011;10902;48.158;8.634;2023-04-27T11:50:17;5.25;;;2.03;;
21480;SDS011;10902;48.158;8.634;2023-04-27T11:52:46;6.63;;;2.47;;
21480;SDS011;10902;48.158;8.634;2023-04-27T11:55:12;4.10;;;2.33;;
21480;SDS011;10902;48.158;8.634;2023-04-27T11:57:40;5.80;;;2.10;;
21480;SDS011;10902;48.158;8.634;2023-04-27T12:00:06;4.68;;;2.15;;
21480;SDS011;10902;48.158;8.634;2023-04-27T12:02:36;6.05;;;2.20;;
21480;SDS011;10902;48.158;8.634;2023-04-27T12:05:02;5.63;;;2.15;;
21480;SDS011;10902;48.158;8.634;2023-04-27T12:07:29;4.97;;;2.25;;
21480;SDS011;10902;48.158;8.634;2023-04-27T12:09:55;3.70;;;1.63;;
21480;SDS011;10902;48.158;8.634;2023-04-27T12:12:20;4.18;;;1.88;;
21480;SDS011;10902;48.158;8.634;2023-04-27T12:14:49;4.13;;;2.05;;
21480;SDS011;10902;48.158;8.634;2023-04-27T12:17:16;5.07;;;1.80;;
21480;SDS011;10902;48.158;8.634;2023-04-27T12:19:42;4.80;;;2.10;;
21480;SDS011;10902;48.158;8.634;2023-04-27T12:22:08;4.10;;;2.10;;
21480;SDS011;10902;48.158;8.634;2023-04-27T12:24:34;4.93;;;2.17;;
21480;SDS011;10902;48.158;8.634;2023-04-27T12:27:00;4.50;;;2.17;;
21480;SDS011;10902;48.158;8.634;2023-04-27T12:29:27;6.30;;;2.35;;
21480;SDS011;10902;48.158;8.634;2023-04-27T12:31:52;5.07;;;2.00;;
21480;SDS011;10902;48.158;8.634;2023-04-27T12:34:18;4.05;;;1.80;;
21480;SDS011;10902;48.158;8.634;2023-04-27T12:36:44;4.70;;;1.80;;
21480;SDS011;10902;48.158;8.634;2023-04-27T12:39:14;6.20;;;1.77;;
21480;SDS011;10902;48.158;8.634;2023-04-27T12:41:44;4.40;;;2.00;;
21480;SDS011;10902;48.158;8.634;2023-04-27T12:44:13;3.75;;;1.70;;
21480;SDS011;10902;48.158;8.634;2023-04-27T12:46:40;4.57;;;1.67;;
21480;SDS011;10902;48.158;8.634;2023-04-27T12:49:07;3.28;;;1.52;;
21480;SDS011;10902;48.158;8.634;2023-04-27T12:51:33;3.80;;;1.60;;
21480;SDS011;10902;48.158;8.634;2023-04-27T12:53:59;7.18;;;2.08;;
21480;SDS011;10902;48.158;8.634;2023-04-27T12:56:27;4.05;;;1.80;;
21480;SDS011;10902;48.158;8.634;2023-04-27T12:58:53;6.32;;;1.80;;
21480;SDS011;10902;48.158;8.634;2023-04-27T13:01:19;5.75;;;2.13;;
21480;SDS011;10902;48.158;8.634;2023-04-27T13:03:48;4.30;;;1.77;;
21480;SDS011;10902;48.158;8.634;2023-04-27T13:06:16;3.72;;;1.60;;
21480;SDS011;10902;48.158;8.634;2023-04-27T13:08:42;5.30;;;1.80;;
21480;SDS011;10902;48.158;8.634;2023-04-27T13:11:07;4.72;;;1.92;;
21480;SDS011;10902;48.158;8.634;2023-04-27T13:13:33;3.72;;;1.20;;
21480;SDS011;10902;48.158;8.634;2023-04-27T13:15:59;3.92;;;1.38;;
21480;SDS011;10902;48.158;8.634;2023-04-27T13:18:25;3.83;;;1.50;;
21480;SDS011;10902;48.158;8.634;2023-04-27T13:20:51;4.75;;;1.70;;
21480;SDS011;10902;48.158;8.634;2023-04-27T13:23:16;3.58;;;1.40;;
21480;SDS011;10902;48.158;8.634;2023-04-27T13:25:42;5.13;;;1.73;;
21480;SDS011;10902;48.158;8.634;2023-04-27T13:28:08;3.47;;;1.52;;
21480;SDS011;10902;48.158;8.634;2023-04-27T13:30:33;4.47;;;1.30;;
21480;SDS011;10902;48.158;8.634;2023-04-27T13:33:00;3.90;;;1.20;;
21480;SDS011;10902;48.158;8.634;2023-04-27T13:35:25;4.07;;;1.52;;
21480;SDS011;10902;48.158;8.634;2023-04-27T13:37:51;6.13;;;2.20;;
21480;SDS011;10902;48.158;8.634;2023-04-27T13:40:18;4.40;;;1.50;;
21480;SDS011;10902;48.158;8.634;2023-04-27T13:42:47;4.30;;;1.50;;
21480;SDS011;10902;48.158;8.634;2023-04-27T13:45:13;3.20;;;1.02;;
21480;SDS011;10902;48.158;8.634;2023-04-27T13:47:39;3.15;;;1.20;;
21480;SDS011;10902;48.158;8.634;2023-04-27T13:50:05;3.67;;;1.55;;
21480;SDS011;10902;48.158;8.634;2023-04-27T13:52:35;5.15;;;1.40;;
21480;SDS011;10902;48.158;8.634;2023-04-27T13:55:05;6.07;;;1.63;;
21480;SDS011;10902;48.158;8.634;2023-04-27T13:57:32;2.97;;;1.30;;
21480;SDS011;10902;48.158;8.634;2023-04-27T13:59:58;4.38;;;1.30;;
21480;SDS011;10902;48.158;8.634;2023-04-27T14:02:24;3.35;;;1.25;;
21480;SDS011;10902;48.158;8.634;2023-04-27T14:04:53;3.47;;;1.35;;
21480;SDS011;10902;48.158;8.634;2023-04-27T14:07:19;4.75;;;1.60;;
21480;SDS011;10902;48.158;8.634;2023-04-27T14:09:44;3.03;;;1.23;;
21480;SDS011;10902;48.158;8.634;2023-04-27T14:12:10;3.20;;;1.30;;
21480;SDS011;10902;48.158;8.634;2023-04-27T14:14:36;4.50;;;1.80;;
21480;SDS011;10902;48.158;8.634;2023-04-27T14:17:02;3.50;;;1.40;;
21480;SDS011;10902;48.158;8.634;2023-04-27T14:19:28;4.22;;;1.40;;
21480;SDS011;10902;48.158;8.634;2023-04-27T14:21:54;4.72;;;1.67;;
21480;SDS011;10902;48.158;8.634;2023-04-27T14:24:20;4.05;;;1.40;;
21480;SDS011;10902;48.158;8.634;2023-04-27T14:26:46;4.10;;;1.30;;
21480;SDS011;10902;48.158;8.634;2023-04-27T14:29:12;3.65;;;1.13;;
21480;SDS011;10902;48.158;8.634;2023-04-27T14:31:39;3.38;;;1.30;;
21480;SDS011;10902;48.158;8.634;2023-04-27T14:34:05;4.38;;;1.25;;
21480;SDS011;10902;48.158;8.634;2023-04-27T14:36:31;3.78;;;1.52;;
21480;SDS011;10902;48.158;8.634;2023-04-27T14:38:57;3.05;;;1.27;;
21480;SDS011;10902;48.158;8.634;2023-04-27T14:41:27;3.13;;;1.30;;
21480;SDS011;10902;48.158;8.634;2023-04-27T14:43:55;5.13;;;1.30;;
21480;SDS011;10902;48.158;8.634;2023-04-27T14:46:21;4.45;;;1.60;;
21480;SDS011;10902;48.158;8.634;2023-04-27T14:48:47;4.75;;;1.67;;
21480;SDS011;10902;48.158;8.634;2023-04-27T14:51:13;4.35;;;1.60;;
21480;SDS011;10902;48.158;8.634;2023-04-27T14:53:39;5.57;;;1.75;;